Aérodrome :
LOGIN :

S'inscrire | Disclaimer

   EN    FR    IT 

 










Légende :    VFR   VFR Marginal   IFR   IFR Intensif   IFR Très Intensif
Visi : 
Plafond : 
>= 8 km
>= 3000ft
5 à 8 km
1000 à 3000 ft
1500m à 5 km
500 à 1000 ft
800 à 1500m
200 à 500 ft
< 800m
< 200 ft
Symboles :   Orages  Brouillard  Fortes neiges  Fortes précipitations  Vent > 20 kt
SIGMETs :   Divers  Orages  Givrage  Turbulence  Onde Orograph.  Cendres Volcan.






- Altitude de l'aérodrome : 616 ft
- Code IATA : PUF


LFBP - Pau

DERNIER METAR :
  • 181700Z AUTO 10008KT 9999 OVC074 10/03 Q1018 BECMG 4000 RA

METARs EXPIRÉS :
  • 181630Z AUTO 09007KT 060V120 9999 OVC076 10/03 Q1018 BECMG 4000 RA
  • 181600Z AUTO 10007KT 070V130 9999 OVC076 10/03 Q1019 BECMG 4000 RA
  • 181530Z AUTO 09006KT 050V110 9999 FEW066 BKN082 11/03 Q1019 BECMG 4000 RA
  • 181500Z AUTO 10009KT 070V130 9999 FEW092 11/03 Q1019 BECMG 4000 RA
  • 181430Z AUTO 10012KT CAVOK 12/03 Q1020 BECMG 4000 RA

TAF TAF LFBP
Valide du 18 à 12h jusqu'au 19 à 12h UTC


181100Z 1812/1912 10010KT CAVOK
BECMG 1815/1817 4000 RA OVC050
BECMG 1904/1906 9999 NSW OVC015
BECMG 1906/1908 02010KT



MET'MAP, la Météo Aéronautique d'un coup d'oeil ! - Copyright ORBIFLY Décembre 2007 - Disclaimer

ORBIFLY MET'MAP TEAM :

Programmation & Développement : Alexandra Zaïnal
Sur une idée originale de : Baudouin d'Aumeries
Assistance à la programmation : Marc-Olivier Méhu
Soutien technique & logistique : Manuel Goepfert

Contact : metmap@orbifly.com




SOURCES & CREDITS :

   NOAA